Time;durP1;ratioP1;P1;durP2;ratioP2;P2;SDS_P1;SDS_P2;PMS_P1;PMS_P2;Temp;Humidity;BMP_temperature;BMP_pressure;BME280_temperature;BME280_humidity;BME280_pressure;Samples;Min_cycle;Max_cycle;Signal;HPM_P1;HPM_P2
2024/03/16 00:01:05;;;;;;;16.27;11.73;;;;;;;3.57;75.55;94880.53;5145317;27;20026;-79
2024/03/16 00:03:31;;;;;;;20.50;13.75;;;;;;;3.61;75.91;94906.06;5173807;27;20030;-79
2024/03/16 00:05:57;;;;;;;13.60;10.60;;;;;;;3.58;76.17;94897.59;5155170;27;20050;-78
2024/03/16 00:08:23;;;;;;;14.77;11.32;;;;;;;3.22;77.47;94889.28;5133536;27;20539;-79
2024/03/16 00:10:49;;;;;;;14.50;11.13;;;;;;;3.25;76.98;94891.69;5138025;27;20022;-79
2024/03/16 00:13:14;;;;;;;18.70;11.40;;;;;;;3.09;78.03;94897.66;5134126;27;20061;-79
2024/03/16 00:15:39;;;;;;;13.13;9.02;;;;;;;3.16;78.09;94894.75;5152597;27;20026;-79
2024/03/16 00:18:05;;;;;;;12.05;7.75;;;;;;;3.09;77.60;94879.69;5118828;27;20183;-79
2024/03/16 00:20:30;;;;;;;9.90;7.28;;;;;;;3.21;78.04;94896.19;5147789;27;20042;-79
2024/03/16 00:22:56;;;;;;;8.93;7.30;;;;;;;3.14;78.05;94882.81;5116785;27;20022;-79
2024/03/16 00:25:22;;;;;;;9.73;7.40;;;;;;;3.26;77.52;94895.91;5134172;27;20030;-79
2024/03/16 00:27:49;;;;;;;12.00;7.50;;;;;;;3.38;77.32;94895.28;5142364;27;20031;-79
2024/03/16 00:30:15;;;;;;;9.82;7.40;;;;;;;3.32;77.00;94875.06;5139981;27;20030;-79
2024/03/16 00:32:40;;;;;;;12.05;7.97;;;;;;;3.49;77.14;94887.81;5116667;27;20031;-79
2024/03/16 00:35:06;;;;;;;10.77;8.38;;;;;;;3.44;76.38;94879.53;5116773;27;20500;-78
2024/03/16 00:37:32;;;;;;;9.52;7.35;;;;;;;3.49;76.60;94895.53;5135677;27;20420;-80
2024/03/16 00:39:57;;;;;;;11.88;8.60;;;;;;;3.39;77.23;94884.09;5134251;27;20476;-80
2024/03/16 00:42:23;;;;;;;10.43;7.50;;;;;;;3.32;77.82;94891.31;5102850;27;20031;-80
2024/03/16 00:44:48;;;;;;;10.85;6.72;;;;;;;3.35;77.54;94890.31;5136957;27;20038;-79
2024/03/16 00:47:13;;;;;;;9.68;7.88;;;;;;;3.35;77.40;94874.91;5157199;27;20026;-79
2024/03/16 00:49:39;;;;;;;11.95;7.35;;;;;;;3.28;77.75;94896.66;5121115;27;20031;-78
2024/03/16 00:52:04;;;;;;;9.50;7.97;;;;;;;3.17;78.20;94894.66;5120717;27;20551;-79
2024/03/16 00:54:30;;;;;;;10.70;8.45;;;;;;;3.00;78.32;94869.06;5125152;27;20038;-77
2024/03/16 00:56:55;;;;;;;10.93;6.88;;;;;;;3.18;78.40;94888.63;5139075;27;20037;-77
2024/03/16 00:59:22;;;;;;;10.50;7.78;;;;;;;3.10;78.35;94886.47;5141784;27;20174;-77
2024/03/16 01:01:48;;;;;;;11.45;8.15;;;;;;;3.08;78.24;94877.19;5139887;27;20495;-77
2024/03/16 01:04:13;;;;;;;11.52;7.70;;;;;;;3.01;78.58;94876.69;5128988;27;20034;-78
2024/03/16 01:06:39;;;;;;;11.27;7.95;;;;;;;3.11;78.17;94882.97;5141071;27;20033;-78
2024/03/16 01:09:04;;;;;;;11.48;8.25;;;;;;;3.26;77.62;94881.34;5124024;27;20725;-78
2024/03/16 01:11:30;;;;;;;9.50;7.32;;;;;;;3.00;78.17;94869.88;5148828;27;20141;-78
2024/03/16 01:13:55;;;;;;;11.88;7.68;;;;;;;3.19;77.80;94877.44;5151273;27;20034;-78
2024/03/16 01:16:21;;;;;;;10.63;7.82;;;;;;;3.12;77.68;94874.38;5156794;27;20065;-78
2024/03/16 01:18:46;;;;;;;11.30;7.75;;;;;;;3.25;78.03;94881.44;5158261;27;20030;-78
2024/03/16 01:21:12;;;;;;;12.77;7.68;;;;;;;3.29;77.64;94875.22;5139243;27;20472;-78
2024/03/16 01:23:37;;;;;;;10.70;7.55;;;;;;;3.20;77.65;94876.53;5139845;27;20031;-78
2024/03/16 01:26:04;;;;;;;12.15;7.93;;;;;;;3.21;77.89;94874.81;5158079;27;20166;-77
2024/03/16 01:28:30;;;;;;;9.93;7.70;;;;;;;3.19;77.55;94874.06;5158280;27;20101;-77
2024/03/16 01:30:55;;;;;;;11.57;8.18;;;;;;;3.22;78.02;94876.47;5143632;27;20527;-77
2024/03/16 01:33:21;;;;;;;11.32;7.63;;;;;;;2.87;78.21;94853.44;5157983;27;20075;-78
2024/03/16 01:35:48;;;;;;;10.48;8.18;;;;;;;2.98;78.52;94874.28;5158213;27;20034;-79
2024/03/16 01:38:15;;;;;;;10.98;8.27;;;;;;;3.08;78.39;94880.56;5170090;27;20453;-79
2024/03/16 01:40:40;;;;;;;11.30;8.05;;;;;;;3.02;78.84;94878.34;5117489;27;20485;-79
2024/03/16 01:43:06;;;;;;;12.18;8.15;;;;;;;2.86;78.94;94860.31;5116298;27;20034;-79
2024/03/16 01:45:32;;;;;;;11.30;8.05;;;;;;;2.97;78.79;94874.34;5099437;27;20023;-78
2024/03/16 01:47:57;;;;;;;12.80;9.05;;;;;;;2.81;79.25;94874.31;5099590;27;20015;-79
2024/03/16 01:50:23;;;;;;;10.85;8.27;;;;;;;2.89;79.11;94880.69;5118436;27;20033;-78
2024/03/16 01:52:48;;;;;;;11.80;8.85;;;;;;;3.01;78.70;94879.25;5135881;27;20030;-79
2024/03/16 01:55:16;;;;;;;10.32;8.25;;;;;;;2.96;78.84;94872.69;5119663;27;20041;-80
2024/03/16 01:57:42;;;;;;;13.40;9.45;;;;;;;2.78;79.00;94871.91;5117234;27;20023;-79
2024/03/16 02:00:11;;;;;;;13.18;10.63;;;;;;;2.93;79.28;94889.09;5122690;27;20498;-79
2024/03/16 02:02:37;;;;;;;13.90;10.55;;;;;;;2.84;78.65;94869.88;5176139;27;20287;-79
2024/03/16 02:05:06;;;;;;;13.73;10.02;;;;;;;3.05;78.73;94883.31;5176456;27;20037;-78
2024/03/16 02:07:32;;;;;;;12.32;9.40;;;;;;;2.97;79.04;94889.75;5148280;27;20523;-79
2024/03/16 02:09:59;;;;;;;10.88;8.57;;;;;;;2.76;79.32;94869.44;5136771;27;20034;-82
2024/03/16 02:12:24;;;;;;;11.23;8.52;;;;;;;2.99;78.54;94887.94;5136447;27;20095;-81
2024/03/16 02:14:50;;;;;;;12.38;8.63;;;;;;;3.10;78.02;94888.22;5119138;27;20042;-76
2024/03/16 02:17:16;;;;;;;11.57;8.77;;;;;;;3.00;78.56;94874.19;5153640;27;20041;-77
2024/03/16 02:19:42;;;;;;;10.80;8.10;;;;;;;2.97;78.72;94892.31;5119529;27;20027;-77
2024/03/16 02:22:08;;;;;;;13.52;8.43;;;;;;;2.94;78.84;94888.16;5119090;27;20029;-77
2024/03/16 02:24:34;;;;;;;12.07;8.40;;;;;;;2.91;79.06;94888.34;5119670;27;20084;-76
2024/03/16 02:26:59;;;;;;;11.57;8.68;;;;;;;2.85;79.17;94875.81;5111715;27;20035;-77
2024/03/16 02:29:27;;;;;;;10.23;7.82;;;;;;;2.59;79.65;94844.63;5136195;27;20031;-76
2024/03/16 02:31:53;;;;;;;10.65;7.85;;;;;;;2.82;79.13;94875.97;5136367;27;20594;-77
2024/03/16 02:34:19;;;;;;;11.80;8.88;;;;;;;2.72;79.83;94883.31;5138994;27;20068;-77
2024/03/16 02:36:44;;;;;;;16.50;8.00;;;;;;;2.71;80.11;94873.97;5158156;27;20054;-77
2024/03/16 02:39:11;;;;;;;12.93;9.70;;;;;;;2.70;79.86;94869.72;5136081;27;20050;-77
2024/03/16 02:41:36;;;;;;;13.88;8.63;;;;;;;2.82;80.25;94870.84;5135782;27;20015;-77
2024/03/16 02:44:02;;;;;;;14.18;9.18;;;;;;;3.00;80.34;94895.53;5144574;27;20456;-77
2024/03/16 02:46:28;;;;;;;10.85;8.25;;;;;;;3.11;80.24;94888.13;5139238;27;20033;-76
2024/03/16 02:48:53;;;;;;;11.43;8.38;;;;;;;2.94;80.38;94893.31;5175367;27;20041;-77
2024/03/16 02:51:19;;;;;;;12.13;8.50;;;;;;;3.02;79.75;94872.38;5120148;27;20416;-77
2024/03/16 02:53:44;;;;;;;11.45;8.45;;;;;;;3.05;79.70;94887.63;5116315;27;20034;-81
2024/03/16 02:56:09;;;;;;;13.32;8.05;;;;;;;3.22;79.62;94899.56;5156305;27;20034;-78
2024/03/16 02:58:35;;;;;;;10.63;7.50;;;;;;;3.46;78.70;94898.28;5105845;27;20027;-77
2024/03/16 03:01:00;;;;;;;10.93;8.07;;;;;;;3.35;78.81;94895.44;5115350;27;20503;-77
2024/03/16 03:03:26;;;;;;;12.15;8.32;;;;;;;3.22;78.33;94889.28;5139010;27;20039;-77
2024/03/16 03:05:52;;;;;;;11.07;8.10;;;;;;;3.16;78.32;94885.31;5156135;27;20026;-77
2024/03/16 03:08:18;;;;;;;11.00;8.65;;;;;;;3.12;78.98;94894.06;5138948;27;20498;-77
2024/03/16 03:10:43;;;;;;;12.82;8.50;;;;;;;3.11;78.31;94885.53;5130360;27;20031;-77
2024/03/16 03:13:09;;;;;;;12.60;9.70;;;;;;;2.98;79.36;94902.50;5118158;27;20079;-76
2024/03/16 03:15:35;;;;;;;12.55;8.82;;;;;;;3.08;78.78;94908.81;5135319;27;20031;-77
2024/03/16 03:18:01;;;;;;;11.85;7.78;;;;;;;2.90;79.06;94884.94;5132502;27;20038;-78
2024/03/16 03:20:26;;;;;;;10.15;8.20;;;;;;;3.11;79.21;94902.69;5136409;27;20466;-78
2024/03/16 03:22:51;;;;;;;11.35;8.07;;;;;;;3.02;79.30;94877.50;5133035;27;20458;-78
2024/03/16 03:25:18;;;;;;;12.07;7.93;;;;;;;3.30;78.58;94889.72;5134521;27;20407;-78
2024/03/16 03:27:44;;;;;;;10.30;7.18;;;;;;;3.33;78.05;94885.25;5112901;27;20031;-78
2024/03/16 03:30:10;;;;;;;11.82;7.95;;;;;;;3.23;78.80;94896.06;5162308;27;20087;-79
2024/03/16 03:32:35;;;;;;;11.48;8.05;;;;;;;3.31;78.44;94881.91;5145146;27;20023;-81
2024/03/16 03:35:01;;;;;;;11.07;8.23;;;;;;;3.12;79.21;94912.03;5153356;27;20587;-81
2024/03/16 03:37:26;;;;;;;11.07;7.25;;;;;;;3.34;78.15;94914.31;5126743;27;20042;-80
2024/03/16 03:39:52;;;;;;;10.38;7.28;;;;;;;3.33;77.48;94897.25;5115272;27;20034;-80
2024/03/16 03:42:24;;;;;;;9.43;6.80;;;;;;;3.40;77.39;94913.16;5113453;27;20079;-82
2024/03/16 03:45:00;;;;;;;9.77;7.28;;;;;;;3.23;78.61;94902.06;5151401;27;20038;-82
2024/03/16 03:47:49;;;;;;;11.32;8.32;;;;;;;3.47;77.96;94905.06;5135696;27;20316;-82
2024/03/16 03:50:23;;;;;;;9.75;7.00;;;;;;;3.48;78.41;94903.31;5122245;27;20117;-82
2024/03/16 03:52:48;;;;;;;9.23;7.13;;;;;;;3.11;78.29;94875.28;5129457;27;20453;-83
2024/03/16 03:55:13;;;;;;;11.52;7.97;;;;;;;3.08;79.19;94919.06;5106801;27;20039;-83
2024/03/16 03:57:39;;;;;;;11.98;8.32;;;;;;;3.32;78.79;94919.53;5103038;27;20041;-82
2024/03/16 04:00:08;;;;;;;10.88;7.68;;;;;;;3.27;77.92;94913.81;5130815;27;20076;-83
2024/03/16 04:02:33;;;;;;;12.73;9.23;;;;;;;3.29;77.52;94924.84;5151184;27;20018;-82
2024/03/16 04:04:59;;;;;;;14.35;11.05;;;;;;;3.21;78.54;94921.03;5155822;27;20034;-82
2024/03/16 04:07:24;;;;;;;16.00;12.60;;;;;;;2.96;79.80;94914.59;5105492;27;20023;-82
2024/03/16 04:09:50;;;;;;;20.13;15.45;;;;;;;3.10;79.42;94916.44;5101942;27;20027;-83
2024/03/16 04:12:15;;;;;;;22.13;16.50;;;;;;;2.99;80.32;94929.81;5125260;27;20023;-78
2024/03/16 04:14:41;;;;;;;20.02;14.77;;;;;;;2.81;80.60;94923.06;5116127;27;20040;-78
2024/03/16 04:17:07;;;;;;;19.35;13.68;;;;;;;2.82;80.40;94922.16;5140839;27;20075;-78
2024/03/16 04:19:32;;;;;;;17.10;12.88;;;;;;;2.99;79.55;94929.00;5096491;27;20027;-79
2024/03/16 04:21:58;;;;;;;19.60;13.52;;;;;;;2.94;79.74;94930.97;5129072;27;20025;-78
2024/03/16 04:24:23;;;;;;;20.05;14.02;;;;;;;2.87;80.69;94922.75;5127243;27;20373;-78
2024/03/16 04:26:48;;;;;;;24.20;16.95;;;;;;;2.51;81.62;94905.75;5131263;27;20473;-78
2024/03/16 04:29:14;;;;;;;21.52;15.30;;;;;;;2.68;82.04;94926.25;5085636;27;20037;-79
2024/03/16 04:31:39;;;;;;;24.88;16.05;;;;;;;2.54;82.12;94923.53;5138550;27;20019;-78
2024/03/16 04:34:05;;;;;;;26.85;18.98;;;;;;;2.87;81.90;94935.56;5144504;27;20038;-79
2024/03/16 04:36:31;;;;;;;27.75;21.48;;;;;;;2.94;80.66;94929.22;5151892;27;20078;-79
2024/03/16 04:38:56;;;;;;;28.17;21.75;;;;;;;2.77;80.60;94922.38;5131940;27;20050;-79
2024/03/16 04:41:22;;;;;;;31.33;21.63;;;;;;;2.98;80.74;94933.31;5115783;27;20023;-77
2024/03/16 04:43:47;;;;;;;25.52;18.70;;;;;;;2.86;81.19;94936.47;5133737;27;20046;-80
2024/03/16 04:46:13;;;;;;;13.93;10.30;;;;;;;2.85;80.93;94935.66;5131529;27;20555;-80
2024/03/16 04:48:39;;;;;;;14.65;10.57;;;;;;;2.86;80.73;94945.00;5116594;27;20034;-80
2024/03/16 04:51:04;;;;;;;18.50;12.02;;;;;;;2.95;80.15;94927.47;5141974;27;20236;-81
2024/03/16 04:53:29;;;;;;;12.43;9.27;;;;;;;2.77;80.98;94914.69;5116654;27;20031;-80
2024/03/16 04:55:55;;;;;;;12.75;9.15;;;;;;;2.94;80.32;94928.41;5151633;27;20041;-80
2024/03/16 04:58:22;;;;;;;13.10;9.77;;;;;;;2.79;80.45;94910.31;5114483;27;20050;-79
2024/03/16 05:00:47;;;;;;;25.42;18.88;;;;;;;2.72;81.40;94928.66;5116750;27;20027;-80
2024/03/16 05:03:33;;;;;;;34.90;24.13;;;;;;;3.01;81.39;94942.56;5116993;27;20031;-79
2024/03/16 05:06:04;;;;;;;33.42;20.98;;;;;;;3.13;80.37;94941.97;5119670;27;20065;-80
2024/03/16 05:08:33;;;;;;;24.50;17.50;;;;;;;2.99;80.03;94917.00;5132184;27;20042;-80
2024/03/16 05:10:58;;;;;;;25.25;17.65;;;;;;;3.16;79.77;94943.53;5145848;27;20027;-81
2024/03/16 05:13:26;;;;;;;26.73;17.38;;;;;;;3.11;80.85;94936.06;5112971;27;20041;-79
2024/03/16 05:15:52;;;;;;;28.23;19.25;;;;;;;2.75;81.32;94939.59;5151205;27;20030;-81
2024/03/16 05:18:17;;;;;;;29.45;20.75;;;;;;;2.71;82.42;94945.78;5131643;27;20450;-80
2024/03/16 05:20:44;;;;;;;30.05;19.33;;;;;;;3.20;80.90;94939.88;5113202;28;20019;-81
2024/03/16 05:23:10;;;;;;;27.98;19.38;;;;;;;3.12;80.22;94910.31;5150062;27;20479;-80
2024/03/16 05:25:35;;;;;;;33.45;22.33;;;;;;;3.11;80.92;94948.91;5106535;28;20019;-79
2024/03/16 05:28:01;;;;;;;32.78;21.42;;;;;;;2.75;82.51;94944.72;5148656;27;20046;-79
2024/03/16 05:30:27;;;;;;;26.27;17.60;;;;;;;2.81;82.37;94951.28;5143629;27;20027;-78
2024/03/16 05:32:53;;;;;;;29.95;19.88;;;;;;;2.86;81.59;94916.78;5134781;27;20095;-78
2024/03/16 05:35:18;;;;;;;28.55;20.42;;;;;;;3.22;79.90;94945.78;5135056;27;20094;-80
2024/03/16 05:37:44;;;;;;;32.00;21.30;;;;;;;2.90;81.25;94943.13;5141770;27;20073;-81
2024/03/16 05:40:28;;;;;;;31.92;21.00;;;;;;;3.29;79.65;94940.25;5108809;27;20023;-79
2024/03/16 05:42:54;;;;;;;32.67;21.02;;;;;;;3.12;79.53;94925.72;5134272;27;20034;-80
2024/03/16 05:45:20;;;;;;;25.95;17.00;;;;;;;2.99;81.06;94939.28;5135772;27;20022;-77
2024/03/16 05:47:46;;;;;;;27.40;17.90;;;;;;;3.02;81.48;94939.09;5141135;27;20075;-75
2024/03/16 05:50:11;;;;;;;26.30;18.20;;;;;;;3.15;81.25;94929.88;5129144;27;20038;-78
2024/03/16 05:52:37;;;;;;;26.35;16.77;;;;;;;3.06;81.71;94938.84;5117290;27;20388;-77
2024/03/16 05:55:04;;;;;;;29.75;18.77;;;;;;;3.06;81.84;94932.91;5124240;27;20103;-78
2024/03/16 05:57:29;;;;;;;32.95;20.23;;;;;;;3.09;81.25;94941.28;5110047;27;20109;-77
2024/03/16 05:59:56;;;;;;;36.03;23.48;;;;;;;3.38;80.25;94930.41;5111051;27;20030;-75
2024/03/16 06:02:22;;;;;;;31.55;21.08;;;;;;;3.14;80.23;94926.44;5116055;27;20043;-79
2024/03/16 06:04:47;;;;;;;26.50;18.15;;;;;;;3.16;80.55;94928.97;5127827;27;20038;-76
2024/03/16 06:07:13;;;;;;;26.65;17.52;;;;;;;3.63;78.88;94938.47;5151275;27;20038;-75
2024/03/16 06:09:38;;;;;;;71.45;55.50;;;;;;;3.36;79.29;94930.47;5118258;27;20033;-80
2024/03/16 06:12:03;;;;;;;68.45;47.15;;;;;;;3.25;80.13;94927.66;5109969;27;20052;-79
2024/03/16 06:14:29;;;;;;;85.55;58.83;;;;;;;3.40;79.99;94946.53;5101869;27;20029;-81
2024/03/16 06:16:57;;;;;;;23.65;16.67;;;;;;;3.50;79.86;94943.41;5134056;27;20030;-81
2024/03/16 06:19:23;;;;;;;20.30;15.90;;;;;;;3.46;79.42;94935.97;5132374;27;20031;-78
2024/03/16 06:21:48;;;;;;;29.00;21.13;;;;;;;3.53;80.01;94950.94;5112199;27;20477;-78
2024/03/16 06:24:14;;;;;;;32.55;21.90;;;;;;;3.66;80.06;94966.56;5117417;27;20212;-80
2024/03/16 06:26:41;;;;;;;24.45;15.57;;;;;;;3.73;79.59;94957.63;5099974;27;20072;-82
2024/03/16 06:29:08;;;;;;;23.52;16.17;;;;;;;5.07;76.49;94926.91;5123633;27;20046;-83
2024/03/16 06:31:38;;;;;;;25.73;17.08;;;;;;;6.57;70.28;94964.03;5104602;27;20030;-82
2024/03/16 06:34:04;;;;;;;25.15;16.50;;;;;;;7.06;66.89;94960.84;5103782;27;20035;-79
2024/03/16 06:36:33;;;;;;;23.80;16.27;;;;;;;7.25;66.46;94959.63;5102859;27;20018;-78
2024/03/16 06:39:10;;;;;;;26.77;18.95;;;;;;;6.92;67.10;94958.34;5122877;27;20051;-82
2024/03/16 06:41:36;;;;;;;30.77;20.80;;;;;;;8.19;63.74;94947.03;5125709;27;20019;-78
2024/03/16 06:44:02;;;;;;;54.80;33.83;;;;;;;9.37;59.67;94940.13;5129408;27;20027;-82
2024/03/16 06:46:28;;;;;;;26.10;18.95;;;;;;;9.69;58.02;94940.25;5130629;27;20030;-79
2024/03/16 06:48:53;;;;;;;60.72;34.28;;;;;;;10.12;56.67;94944.69;5111887;27;20022;-82
2024/03/16 06:51:19;;;;;;;20.73;15.57;;;;;;;10.79;53.77;94922.06;5112708;27;20391;-81
2024/03/16 06:53:47;;;;;;;20.65;15.40;;;;;;;11.87;51.37;94947.72;5135234;27;20476;-79
2024/03/16 06:56:14;;;;;;;25.88;18.67;;;;;;;10.46;54.50;94945.44;5107751;27;20034;-81
2024/03/16 06:58:39;;;;;;;31.23;21.70;;;;;;;10.26;55.77;94964.38;5115719;27;20035;-87
2024/03/16 07:01:05;;;;;;;23.55;15.50;;;;;;;9.57;56.77;94962.75;5140854;27;20038;-79
2024/03/16 07:03:31;;;;;;;19.95;14.82;;;;;;;10.04;56.13;94954.84;5133156;27;20035;-82
2024/03/16 07:05:57;;;;;;;21.88;15.35;;;;;;;9.33;57.97;94955.09;5150054;27;20015;-82
2024/03/16 07:08:22;;;;;;;20.42;14.88;;;;;;;9.30;59.14;94965.69;5128936;27;20488;-79
2024/03/16 07:10:47;;;;;;;21.02;15.80;;;;;;;8.34;61.20;94954.63;5104040;27;20019;-80
2024/03/16 07:13:13;;;;;;;19.13;14.95;;;;;;;8.03;62.40;94962.81;5107596;27;20034;-79
2024/03/16 07:15:39;;;;;;;33.20;21.95;;;;;;;7.57;63.96;94973.75;5132321;27;20512;-79
2024/03/16 07:18:05;;;;;;;24.20;16.52;;;;;;;7.45;64.77;94972.00;5114879;27;20031;-78
2024/03/16 07:20:30;;;;;;;30.17;19.88;;;;;;;7.42;65.06;94972.22;5133348;27;20015;-79
2024/03/16 07:22:56;;;;;;;20.55;16.20;;;;;;;7.04;67.09;94973.00;5152416;27;20026;-79
2024/03/16 07:25:21;;;;;;;25.40;16.95;;;;;;;7.22;66.81;94965.00;5129074;27;20029;-79
2024/03/16 07:27:47;;;;;;;35.00;20.42;;;;;;;7.24;67.42;94970.84;5126416;27;20038;-74
2024/03/16 07:30:12;;;;;;;43.42;26.08;;;;;;;7.29;67.61;94972.22;5107957;27;20637;-82
2024/03/16 07:32:38;;;;;;;17.75;14.18;;;;;;;7.85;65.63;94966.66;5152204;27;20026;-81
2024/03/16 07:35:06;;;;;;;23.48;16.88;;;;;;;7.48;67.38;94976.97;5124939;27;20030;-78
2024/03/16 07:37:32;;;;;;;16.63;12.88;;;;;;;7.43;67.05;94980.78;5148896;27;20083;-79
2024/03/16 07:39:57;;;;;;;18.38;14.02;;;;;;;7.81;66.20;94973.00;5123923;27;20030;-79
2024/03/16 07:42:23;;;;;;;18.25;14.10;;;;;;;7.75;66.42;94969.09;5134081;27;20023;-81
2024/03/16 07:44:49;;;;;;;21.17;15.05;;;;;;;7.85;65.68;94974.44;5093270;27;20037;-78
2024/03/16 07:47:14;;;;;;;22.80;12.63;;;;;;;7.69;65.57;94979.00;5134538;27;20025;-81
2024/03/16 07:49:39;;;;;;;16.55;11.73;;;;;;;7.88;64.92;94975.97;5133710;27;20533;-81
2024/03/16 07:52:05;;;;;;;17.83;13.18;;;;;;;8.20;65.04;94968.56;5090999;27;20424;-77
2024/03/16 07:54:30;;;;;;;17.92;13.55;;;;;;;7.97;64.60;94958.06;5144659;27;20408;-75
2024/03/16 07:56:58;;;;;;;18.35;14.15;;;;;;;8.08;64.65;94972.84;5115505;27;20085;-75
2024/03/16 07:59:24;;;;;;;15.57;11.85;;;;;;;8.16;63.76;94977.47;5135330;27;20094;-77
2024/03/16 08:01:49;;;;;;;14.65;12.05;;;;;;;8.09;63.72;94965.91;5118056;27;20484;-77
2024/03/16 08:04:14;;;;;;;17.85;12.05;;;;;;;8.90;60.70;94968.66;5134720;27;20099;-76
2024/03/16 08:06:41;;;;;;;18.73;11.68;;;;;;;9.30;60.45;94965.69;5115602;27;20034;-79
2024/03/16 08:09:08;;;;;;;18.75;12.38;;;;;;;9.35;59.23;94942.81;5100779;27;20039;-80
2024/03/16 08:11:34;;;;;;;16.90;13.15;;;;;;;9.26;60.55;94948.72;5134957;27;20568;-78
2024/03/16 08:13:59;;;;;;;15.75;12.02;;;;;;;9.87;60.02;94958.75;5134068;27;20023;-76
2024/03/16 08:16:25;;;;;;;19.25;14.13;;;;;;;9.88;58.18;94960.41;5152873;27;20392;-79
2024/03/16 08:18:50;;;;;;;18.92;13.75;;;;;;;9.77;59.19;94957.81;5133482;27;20118;-77
2024/03/16 08:21:16;;;;;;;13.82;11.18;;;;;;;10.11;57.98;94960.38;5134046;27;20023;-76
2024/03/16 08:23:42;;;;;;;18.08;12.82;;;;;;;9.81;58.04;94922.91;5133975;27;20042;-78
2024/03/16 08:26:09;;;;;;;17.67;12.43;;;;;;;9.56;59.92;94918.81;5099272;27;20495;-77
2024/03/16 08:28:34;;;;;;;20.55;13.93;;;;;;;9.91;57.94;94952.38;5134423;27;20022;-81
2024/03/16 08:31:00;;;;;;;15.85;11.95;;;;;;;10.44;56.73;94949.13;5132783;27;20042;-77
2024/03/16 08:33:26;;;;;;;18.13;12.18;;;;;;;10.21;57.37;94941.34;5152431;27;20038;-76
2024/03/16 08:35:51;;;;;;;14.52;12.00;;;;;;;9.97;56.79;94944.13;5152589;27;20091;-78
2024/03/16 08:38:16;;;;;;;16.98;11.75;;;;;;;9.76;58.75;94936.25;5152508;27;20051;-77
2024/03/16 08:40:42;;;;;;;14.50;11.95;;;;;;;9.57;59.42;94904.88;5153264;27;20027;-80
2024/03/16 08:43:07;;;;;;;17.88;11.88;;;;;;;10.44;56.79;94946.53;5110500;27;20465;-81
2024/03/16 08:45:35;;;;;;;14.18;11.25;;;;;;;10.29;55.71;94907.84;5120350;28;20019;-78
2024/03/16 08:48:01;;;;;;;14.43;11.07;;;;;;;10.08;57.10;94935.47;5080008;28;20031;-79
2024/03/16 08:50:27;;;;;;;20.50;11.23;;;;;;;9.91;58.49;94933.41;5115959;27;20059;-78
2024/03/16 08:52:52;;;;;;;14.77;10.90;;;;;;;9.72;57.63;94934.00;5151778;27;20019;-77
2024/03/16 08:55:19;;;;;;;15.05;10.95;;;;;;;9.94;57.74;94935.75;5127845;27;20038;-78
2024/03/16 08:57:45;;;;;;;13.57;10.50;;;;;;;9.61;57.90;94933.06;5133446;27;20598;-75
2024/03/16 09:00:16;;;;;;;11.45;9.48;;;;;;;9.67;56.38;94921.41;5100110;27;20027;-76
2024/03/16 09:02:42;;;;;;;11.75;9.32;;;;;;;10.03;55.85;94914.28;5120013;27;20033;-75
2024/03/16 09:05:10;;;;;;;11.50;9.23;;;;;;;10.28;55.74;94932.19;5153909;27;20026;-75
2024/03/16 09:07:38;;;;;;;11.85;9.30;;;;;;;10.60;54.56;94925.34;5137638;27;20029;-76
2024/03/16 09:10:07;;;;;;;13.43;10.30;;;;;;;9.99;57.13;94924.06;5139671;27;20041;-76
2024/03/16 09:12:34;;;;;;;14.25;10.20;;;;;;;10.43;57.13;94929.31;5120153;27;20027;-79
2024/03/16 09:15:01;;;;;;;12.80;9.32;;;;;;;10.38;56.69;94929.66;5119135;27;20030;-74
2024/03/16 09:17:26;;;;;;;11.20;9.45;;;;;;;10.80;55.71;94929.72;5136184;27;20101;-78
2024/03/16 09:19:51;;;;;;;12.90;8.80;;;;;;;10.90;55.85;94922.03;5134237;27;20444;-79
2024/03/16 09:22:17;;;;;;;12.68;9.60;;;;;;;10.33;57.37;94930.97;5093284;27;20027;-82
2024/03/16 09:24:42;;;;;;;14.15;9.45;;;;;;;10.12;57.60;94913.53;5129932;27;20036;-81
2024/03/16 09:27:08;;;;;;;11.65;8.43;;;;;;;10.58;57.60;94924.63;5102152;27;20018;-77
2024/03/16 09:29:33;;;;;;;11.75;8.68;;;;;;;10.35;55.86;94903.13;5099312;27;20042;-80
2024/03/16 09:31:59;;;;;;;13.98;9.10;;;;;;;10.42;57.33;94919.84;5133445;27;20031;-73
2024/03/16 09:34:25;;;;;;;10.68;8.35;;;;;;;10.44;56.76;94910.16;5137407;27;20083;-80
2024/03/16 09:36:50;;;;;;;11.23;9.32;;;;;;;10.87;56.57;94919.66;5119760;27;20031;-80
2024/03/16 09:39:16;;;;;;;14.50;10.55;;;;;;;10.61;56.32;94914.81;5155926;27;20500;-81
2024/03/16 09:41:41;;;;;;;13.40;9.80;;;;;;;10.59;57.73;94914.13;5155458;27;20088;-81
2024/03/16 09:44:11;;;;;;;11.95;9.80;;;;;;;10.60;58.08;94910.56;5119652;27;20110;-81
2024/03/16 09:46:37;;;;;;;12.55;9.95;;;;;;;11.13;57.73;94915.72;5119972;27;20027;-81
2024/03/16 09:49:02;;;;;;;13.38;10.80;;;;;;;11.08;57.20;94891.06;5135601;27;20508;-81
2024/03/16 09:51:28;;;;;;;15.70;12.10;;;;;;;11.08;57.36;94899.69;5155493;27;20026;-81
2024/03/16 09:53:54;;;;;;;14.50;10.15;;;;;;;11.09;58.83;94911.75;5136406;27;20031;-81
2024/03/16 09:56:20;;;;;;;14.60;10.88;;;;;;;11.00;59.15;94903.88;5136152;27;20030;-81
2024/03/16 09:58:45;;;;;;;15.85;13.15;;;;;;;11.02;58.99;94889.78;5136179;27;20030;-81
2024/03/16 10:01:10;;;;;;;14.32;12.15;;;;;;;11.12;58.41;94901.09;5119329;27;20484;-81
2024/03/16 10:03:36;;;;;;;17.45;13.43;;;;;;;11.40;58.70;94898.78;5102437;27;20042;-81
2024/03/16 10:06:05;;;;;;;15.98;12.57;;;;;;;11.16;58.20;94891.25;5136744;27;20083;-80
2024/03/16 10:08:36;;;;;;;17.58;14.38;;;;;;;11.10;58.27;94882.19;5103866;27;20034;-81
2024/03/16 10:11:12;;;;;;;11.43;8.98;;;;;;;11.47;57.95;94893.84;5120181;27;20030;-80
2024/03/16 10:13:58;;;;;;;12.82;10.73;;;;;;;11.28;57.51;94889.38;5135640;27;20045;-81
2024/03/16 10:16:26;;;;;;;12.63;10.02;;;;;;;11.53;57.51;94888.13;5136335;27;20026;-81
2024/03/16 10:18:53;;;;;;;10.40;9.25;;;;;;;11.53;57.43;94873.38;5119721;27;20468;-81
2024/03/16 10:21:18;;;;;;;14.88;10.88;;;;;;;11.23;56.80;94857.75;5136397;27;20432;-81
2024/03/16 10:23:47;;;;;;;13.77;9.98;;;;;;;11.66;56.29;94883.53;5119291;27;20117;-81
2024/03/16 10:26:15;;;;;;;9.32;7.75;;;;;;;11.65;54.83;94886.28;5101973;27;20052;-81
2024/03/16 10:28:44;;;;;;;8.95;7.22;;;;;;;11.56;53.79;94890.47;5136315;27;20522;-81
2024/03/16 10:31:12;;;;;;;14.38;9.80;;;;;;;11.83;53.91;94890.69;5118959;27;20023;-81
2024/03/16 10:33:38;;;;;;;11.52;9.55;;;;;;;11.76;54.31;94893.97;5119063;27;20039;-81
2024/03/16 10:36:04;;;;;;;11.35;8.95;;;;;;;11.81;54.80;94878.78;5118890;27;20034;-80
2024/03/16 10:38:30;;;;;;;10.13;8.30;;;;;;;11.51;55.98;94885.66;5118916;27;20050;-81
2024/03/16 10:40:59;;;;;;;10.10;8.27;;;;;;;11.79;53.57;94872.91;5119063;27;20027;-80
2024/03/16 10:43:25;;;;;;;10.75;9.23;;;;;;;11.81;55.28;94881.38;5120058;27;20488;-81
2024/03/16 10:45:51;;;;;;;12.90;9.00;;;;;;;11.85;54.93;94882.78;5135954;27;20087;-81
2024/03/16 10:48:18;;;;;;;11.75;8.88;;;;;;;11.81;55.09;94877.00;5102033;27;20415;-81
2024/03/16 10:50:46;;;;;;;12.73;9.23;;;;;;;12.00;55.33;94857.19;5119096;27;20025;-81
2024/03/16 10:53:12;;;;;;;10.98;9.40;;;;;;;11.97;55.77;94867.88;5118958;27;20038;-81
2024/03/16 10:55:40;;;;;;;9.18;8.10;;;;;;;12.12;54.59;94868.31;5135791;27;20023;-80
2024/03/16 10:58:32;;;;;;;10.15;8.48;;;;;;;12.22;54.66;94861.34;5135859;27;20027;-81
2024/03/16 11:01:15;;;;;;;8.77;7.75;;;;;;;12.06;54.09;94854.91;5149226;27;20027;-81
2024/03/16 11:03:42;;;;;;;10.40;8.73;;;;;;;12.22;54.19;94853.53;5120351;27;20035;-81
2024/03/16 11:06:18;;;;;;;10.77;8.32;;;;;;;12.22;54.53;94859.56;5101577;27;20488;-81
2024/03/16 11:08:48;;;;;;;8.93;7.57;;;;;;;12.26;53.89;94865.34;5120320;27;20480;-81
2024/03/16 11:11:26;;;;;;;10.18;7.78;;;;;;;12.07;53.61;94846.13;5135698;27;20023;-81
2024/03/16 11:13:54;;;;;;;9.63;8.05;;;;;;;12.44;53.20;94863.69;5135436;27;20030;-81
2024/03/16 11:16:30;;;;;;;9.75;7.63;;;;;;;12.70;51.84;94857.91;5153583;27;20028;-81
2024/03/16 11:18:55;;;;;;;8.00;6.95;;;;;;;12.57;52.01;94852.19;5135140;27;20045;-81
2024/03/16 11:21:22;;;;;;;9.15;7.63;;;;;;;12.39;51.63;94855.44;5135231;27;20015;-81
2024/03/16 11:23:48;;;;;;;9.02;7.43;;;;;;;12.38;51.59;94848.59;5118303;27;20034;-81